createdAt,value
2019-03-03T00:01:35.540Z,48.10
2019-03-03T00:04:06.054Z,48.00
2019-03-03T00:06:36.294Z,48.10
2019-03-03T00:09:07.530Z,48.80
2019-03-03T00:11:39.595Z,48.20
2019-03-03T00:14:09.779Z,48.20
2019-03-03T00:16:40.365Z,48.30
2019-03-03T00:19:10.590Z,48.40
2019-03-03T00:21:41.459Z,48.30
2019-03-03T00:24:11.626Z,48.20
2019-03-03T00:26:41.867Z,48.20
2019-03-03T00:29:12.021Z,48.10
2019-03-03T00:31:42.174Z,48.30
2019-03-03T00:34:12.387Z,48.50
2019-03-03T00:37:01.966Z,48.60
2019-03-03T00:39:36.680Z,48.80
2019-03-03T00:42:24.288Z,48.90
2019-03-03T00:45:05.313Z,48.90
2019-03-03T00:47:53.557Z,48.90
2019-03-03T00:50:25.328Z,49.00
2019-03-03T00:53:00.266Z,49.00
2019-03-03T00:55:34.691Z,49.00
2019-03-03T00:58:06.843Z,48.80
2019-03-03T01:00:39.733Z,48.90
2019-03-03T01:03:17.686Z,48.80
2019-03-03T01:05:52.300Z,48.70
2019-03-03T01:08:24.517Z,49.50
2019-03-03T01:11:02.847Z,49.10
2019-03-03T01:13:36.029Z,49.20
2019-03-03T01:16:10.700Z,49.20
2019-03-03T01:18:44.919Z,49.30
2019-03-03T01:21:16.578Z,49.50
2019-03-03T01:23:51.550Z,49.20
2019-03-03T01:26:21.685Z,49.90
2019-03-03T01:28:51.913Z,49.10
2019-03-03T01:31:21.995Z,48.90
2019-03-03T01:33:52.451Z,49.10
2019-03-03T01:36:22.682Z,49.30
2019-03-03T01:38:53.103Z,49.20
2019-03-03T01:41:23.211Z,49.30
2019-03-03T01:43:53.651Z,49.30
2019-03-03T01:46:23.802Z,49.20
2019-03-03T01:48:53.966Z,49.20
2019-03-03T01:51:24.050Z,49.10
2019-03-03T01:53:54.213Z,50.10
2019-03-03T01:56:24.329Z,49.30
2019-03-03T01:58:54.716Z,49.50
2019-03-03T02:01:24.853Z,49.50
2019-03-03T02:03:56.173Z,49.30
2019-03-03T02:06:26.333Z,50.00
2019-03-03T02:08:56.486Z,49.30
2019-03-03T02:11:27.210Z,49.30
2019-03-03T02:13:57.242Z,49.20
2019-03-03T02:16:28.784Z,49.10
2019-03-03T02:18:59.971Z,49.20
2019-03-03T02:21:30.154Z,49.20
2019-03-03T02:24:00.675Z,49.00
2019-03-03T02:26:30.701Z,48.90
2019-03-03T02:29:01.224Z,49.00
2019-03-03T02:31:31.368Z,49.10
2019-03-03T02:34:01.515Z,49.40
2019-03-03T02:36:31.991Z,49.50
2019-03-03T02:39:02.189Z,49.20
2019-03-03T02:41:33.902Z,49.40
2019-03-03T02:44:04.375Z,49.40
2019-03-03T02:46:34.731Z,49.50
2019-03-03T02:49:04.820Z,49.60
2019-03-03T02:51:35.268Z,49.60
2019-03-03T02:54:06.018Z,49.40
2019-03-03T02:56:36.245Z,49.30
2019-03-03T02:59:06.400Z,49.50
2019-03-03T03:01:38.519Z,49.40
2019-03-03T03:04:08.607Z,49.50
2019-03-03T03:06:40.332Z,49.50
2019-03-03T03:09:12.563Z,49.60
2019-03-03T03:12:00.873Z,49.60
2019-03-03T03:14:38.685Z,49.90
2019-03-03T03:17:17.642Z,49.90
2019-03-03T03:20:07.431Z,50.00
2019-03-03T03:22:54.030Z,50.30
2019-03-03T03:25:25.824Z,50.30
2019-03-03T03:28:00.733Z,50.20
2019-03-03T03:30:32.613Z,49.90
2019-03-03T03:33:20.202Z,50.10
2019-03-03T03:35:57.747Z,50.10
2019-03-03T03:38:29.620Z,50.20
2019-03-03T03:41:20.351Z,50.60
2019-03-03T03:43:52.417Z,50.10
2019-03-03T03:46:33.207Z,50.10
2019-03-03T03:49:16.855Z,50.10
2019-03-03T03:51:51.295Z,50.50
2019-03-03T03:54:23.083Z,50.80
2019-03-03T03:57:01.219Z,50.70
2019-03-03T03:59:33.084Z,50.80
2019-03-03T04:02:23.094Z,51.10
2019-03-03T04:05:06.735Z,50.90
2019-03-03T04:07:38.903Z,50.70
2019-03-03T04:10:19.570Z,50.70
2019-03-03T04:13:07.882Z,50.90
2019-03-03T04:15:57.834Z,50.90
2019-03-03T04:18:29.630Z,51.00
2019-03-03T04:21:01.644Z,51.00
2019-03-03T04:23:36.058Z,51.10
2019-03-03T04:26:13.905Z,51.20
2019-03-03T04:28:46.770Z,51.10
2019-03-03T04:31:18.434Z,50.70
2019-03-03T04:34:07.961Z,50.90
2019-03-03T04:36:51.670Z,50.70
2019-03-03T04:39:23.469Z,50.90
2019-03-03T04:41:55.125Z,51.70
2019-03-03T04:44:27.330Z,50.60
2019-03-03T04:46:59.115Z,50.90
2019-03-03T04:49:40.014Z,50.80
2019-03-03T04:52:11.737Z,50.80
2019-03-03T04:54:52.077Z,50.80
2019-03-03T04:57:38.881Z,51.10
2019-03-03T05:00:21.728Z,51.30
2019-03-03T05:02:56.554Z,51.40
2019-03-03T05:05:37.324Z,51.40
2019-03-03T05:08:18.593Z,51.30
2019-03-03T05:10:51.478Z,51.30
2019-03-03T05:13:23.251Z,51.30
2019-03-03T05:16:03.930Z,51.30
2019-03-03T05:18:35.678Z,51.30
2019-03-03T05:21:06.406Z,51.40
2019-03-03T05:23:36.475Z,51.40
2019-03-03T05:26:06.654Z,51.30
2019-03-03T05:28:36.731Z,51.20
2019-03-03T05:31:06.803Z,51.10
2019-03-03T05:33:36.959Z,51.20
2019-03-03T05:36:07.112Z,51.00
2019-03-03T05:38:38.189Z,51.00
2019-03-03T05:41:08.285Z,50.90
2019-03-03T05:43:38.428Z,50.90
2019-03-03T05:46:08.578Z,50.90
2019-03-03T05:48:38.651Z,51.10
2019-03-03T05:51:08.721Z,51.30
2019-03-03T05:53:38.883Z,51.10
2019-03-03T05:56:09.028Z,50.90
2019-03-03T05:58:39.535Z,50.90
2019-03-03T06:01:09.720Z,50.80
2019-03-03T06:03:39.873Z,50.70
2019-03-03T06:06:10.390Z,51.30
2019-03-03T06:08:40.394Z,51.30
2019-03-03T06:11:10.936Z,51.80
2019-03-03T06:13:41.033Z,51.60
2019-03-03T06:16:11.196Z,51.60
2019-03-03T06:18:41.265Z,52.70
2019-03-03T06:21:11.742Z,51.90
2019-03-03T06:23:42.236Z,52.00
2019-03-03T06:26:12.465Z,51.90
2019-03-03T06:28:42.552Z,52.00
2019-03-03T06:31:13.816Z,52.00
2019-03-03T06:33:44.243Z,52.20
2019-03-03T06:36:14.344Z,52.20
2019-03-03T06:38:44.921Z,52.60
2019-03-03T06:41:15.069Z,52.30
2019-03-03T06:43:45.138Z,52.30
2019-03-03T06:46:15.281Z,52.30
2019-03-03T06:48:45.698Z,52.00
2019-03-03T06:51:16.228Z,52.50
2019-03-03T06:53:46.370Z,51.60
2019-03-03T06:56:16.385Z,51.60
2019-03-03T06:58:46.530Z,51.20
2019-03-03T07:01:16.821Z,51.50
2019-03-03T07:03:47.131Z,51.30
2019-03-03T07:06:17.160Z,51.30
2019-03-03T07:08:47.354Z,51.30
2019-03-03T07:11:17.438Z,51.20
2019-03-03T07:13:47.464Z,51.40
2019-03-03T07:16:17.710Z,51.30
2019-03-03T07:18:47.711Z,51.30
2019-03-03T07:21:17.857Z,52.20
2019-03-03T07:23:48.203Z,51.30
2019-03-03T07:26:18.653Z,51.20
2019-03-03T07:28:49.054Z,51.40
2019-03-03T07:31:19.313Z,51.80
2019-03-03T07:33:50.674Z,51.60
2019-03-03T07:36:21.262Z,51.40
2019-03-03T07:38:51.327Z,52.00
2019-03-03T07:41:21.411Z,51.10
2019-03-03T07:43:51.586Z,49.00
2019-03-03T07:46:21.671Z,47.20
2019-03-03T07:48:51.845Z,45.60
2019-03-03T07:51:22.375Z,44.00
2019-03-03T07:53:52.850Z,42.80
2019-03-03T07:56:22.803Z,40.80
2019-03-03T07:58:53.351Z,40.30
2019-03-03T08:01:23.489Z,39.40
2019-03-03T08:03:53.993Z,38.30
2019-03-03T08:06:24.156Z,37.00
2019-03-03T08:08:54.738Z,36.40
2019-03-03T08:11:25.173Z,35.60
2019-03-03T08:13:55.478Z,34.70
2019-03-03T08:16:25.701Z,33.90
2019-03-03T08:18:55.846Z,32.90
2019-03-03T08:21:26.373Z,32.80
2019-03-03T08:23:57.614Z,32.90
2019-03-03T08:26:27.766Z,32.90
2019-03-03T08:28:57.862Z,30.80
2019-03-03T08:31:28.013Z,30.80
2019-03-03T08:33:58.451Z,29.70
2019-03-03T08:36:28.936Z,29.60
2019-03-03T08:38:59.464Z,28.60
2019-03-03T08:41:29.998Z,28.40
2019-03-03T08:44:01.794Z,27.50
2019-03-03T08:46:33.681Z,26.80
2019-03-03T08:49:05.490Z,26.90
2019-03-03T08:51:40.405Z,27.10
2019-03-03T08:54:12.199Z,27.00
2019-03-03T08:56:46.715Z,26.70
2019-03-03T08:59:37.982Z,26.60
2019-03-03T09:02:16.824Z,26.60
2019-03-03T09:04:54.158Z,26.60
2019-03-03T09:07:26.027Z,25.40
2019-03-03T09:10:03.327Z,25.00
2019-03-03T09:12:37.862Z,24.50
2019-03-03T09:15:15.121Z,23.10
2019-03-03T09:17:56.160Z,23.70
2019-03-03T09:20:27.954Z,25.00
2019-03-03T09:23:14.358Z,23.60
2019-03-03T09:25:46.202Z,22.70
2019-03-03T09:28:27.099Z,22.00
2019-03-03T09:31:15.640Z,22.00
2019-03-03T09:34:03.378Z,21.90
2019-03-03T09:36:35.252Z,21.70
2019-03-03T09:39:11.153Z,21.60
2019-03-03T09:41:46.272Z,20.50
2019-03-03T09:44:34.230Z,20.40
2019-03-03T09:47:22.366Z,20.20
2019-03-03T09:50:12.862Z,19.70
2019-03-03T09:52:45.016Z,19.60
2019-03-03T09:55:19.576Z,18.20
2019-03-03T09:57:57.148Z,18.20
2019-03-03T10:00:28.943Z,18.80
2019-03-03T10:03:00.724Z,17.70
2019-03-03T10:05:44.900Z,17.40
2019-03-03T10:08:32.114Z,17.90
2019-03-03T10:11:03.904Z,17.60
2019-03-03T10:13:41.381Z,17.50
2019-03-03T10:16:19.008Z,17.20
2019-03-03T10:19:08.936Z,17.50
2019-03-03T10:21:46.962Z,17.20
2019-03-03T10:24:18.829Z,18.20
2019-03-03T10:26:50.843Z,16.90
2019-03-03T10:29:31.861Z,17.20
2019-03-03T10:32:03.930Z,17.30
2019-03-03T10:34:52.154Z,17.30
2019-03-03T10:37:29.736Z,17.50
2019-03-03T10:40:04.166Z,17.90
2019-03-03T10:42:36.254Z,18.00
2019-03-03T10:45:13.439Z,17.50
2019-03-03T10:47:45.351Z,17.90
2019-03-03T10:50:17.456Z,17.50
2019-03-03T10:52:49.278Z,17.60
2019-03-03T10:55:36.656Z,17.40
2019-03-03T10:58:20.901Z,17.50
2019-03-03T11:01:04.824Z,17.20
2019-03-03T11:03:45.914Z,17.30
2019-03-03T11:06:20.446Z,17.70
2019-03-03T11:08:52.349Z,17.20
2019-03-03T11:11:24.195Z,16.90
2019-03-03T11:14:04.801Z,16.20
2019-03-03T11:16:46.320Z,16.10
2019-03-03T11:19:24.137Z,16.70
2019-03-03T11:22:07.794Z,17.00
2019-03-03T11:24:42.381Z,16.50
2019-03-03T11:27:26.502Z,16.20
2019-03-03T11:29:58.385Z,16.50
2019-03-03T11:32:46.711Z,16.80
2019-03-03T11:35:24.582Z,16.70
2019-03-03T11:38:12.976Z,17.10
2019-03-03T11:40:50.495Z,17.20
2019-03-03T11:43:28.033Z,20.80
2019-03-03T11:46:16.200Z,23.20
2019-03-03T11:49:00.464Z,25.10
2019-03-03T11:51:47.360Z,27.80
2019-03-03T11:54:34.199Z,29.80
2019-03-03T11:57:14.958Z,30.80
2019-03-03T11:59:46.766Z,31.50
2019-03-03T12:02:34.819Z,32.30
2019-03-03T12:05:15.084Z,31.60
2019-03-03T12:07:49.725Z,31.10
2019-03-03T12:10:38.162Z,31.60
2019-03-03T12:13:14.512Z,32.70
2019-03-03T12:15:46.118Z,32.40
2019-03-03T12:18:34.480Z,33.70
2019-03-03T12:21:15.011Z,33.40
2019-03-03T12:23:46.814Z,33.50
2019-03-03T12:26:34.856Z,32.00
2019-03-03T12:29:06.772Z,32.30
2019-03-03T12:31:38.612Z,33.70
2019-03-03T12:34:25.747Z,33.70
2019-03-03T12:37:06.385Z,32.90
2019-03-03T12:39:50.175Z,33.40
2019-03-03T12:42:30.867Z,35.40
2019-03-03T12:45:05.288Z,35.30
2019-03-03T12:47:40.093Z,35.30
2019-03-03T12:50:25.945Z,34.70
2019-03-03T12:53:01.115Z,34.90
2019-03-03T12:55:35.689Z,34.60
2019-03-03T12:58:13.638Z,34.40
2019-03-03T13:00:51.537Z,34.30
2019-03-03T13:03:26.015Z,34.90
2019-03-03T13:06:03.863Z,34.90
2019-03-03T13:08:42.394Z,34.30
2019-03-03T13:11:14.050Z,34.10
2019-03-03T13:13:57.726Z,34.90
2019-03-03T13:16:46.518Z,35.10
2019-03-03T13:19:28.001Z,35.00
2019-03-03T13:22:05.908Z,34.60
2019-03-03T13:24:46.555Z,34.90
2019-03-03T13:27:22.441Z,34.70
2019-03-03T13:30:03.109Z,34.80
2019-03-03T13:32:39.003Z,34.80
2019-03-03T13:35:14.107Z,35.40
2019-03-03T13:37:51.807Z,35.10
2019-03-03T13:40:39.323Z,35.10
2019-03-03T13:43:09.843Z,35.70
2019-03-03T13:45:40.117Z,35.30
2019-03-03T13:48:10.332Z,35.50
2019-03-03T13:50:40.569Z,35.60
2019-03-03T13:53:10.802Z,35.80
2019-03-03T13:55:41.370Z,35.80
2019-03-03T13:58:11.590Z,36.10
2019-03-03T14:00:42.012Z,36.10
2019-03-03T14:03:12.161Z,35.90
2019-03-03T14:05:42.333Z,35.90
2019-03-03T14:08:12.499Z,35.70
2019-03-03T14:10:42.648Z,35.80
2019-03-03T14:13:12.875Z,36.70
2019-03-03T14:15:43.336Z,36.20
2019-03-03T14:18:14.900Z,36.00
2019-03-03T14:20:45.055Z,35.90
2019-03-03T14:23:15.662Z,35.60
2019-03-03T14:25:45.808Z,35.40
2019-03-03T14:28:16.074Z,35.60
2019-03-03T14:30:46.211Z,35.30
2019-03-03T14:33:16.425Z,36.00
2019-03-03T14:35:46.648Z,35.70
2019-03-03T14:38:17.692Z,35.40
2019-03-03T14:40:47.860Z,35.60
2019-03-03T14:43:18.364Z,35.50
2019-03-03T14:45:48.696Z,36.30
2019-03-03T14:48:18.907Z,36.40
2019-03-03T14:50:49.175Z,36.50
2019-03-03T14:53:19.340Z,35.50
2019-03-03T14:55:49.596Z,36.10
2019-03-03T14:58:19.796Z,36.20
2019-03-03T15:00:49.930Z,35.20
2019-03-03T15:03:20.097Z,35.00
2019-03-03T15:05:50.571Z,34.90
2019-03-03T15:08:21.084Z,33.70
2019-03-03T15:10:51.327Z,35.30
2019-03-03T15:13:21.629Z,35.70
2019-03-03T15:15:51.787Z,34.10
2019-03-03T15:18:22.001Z,34.40
2019-03-03T15:20:52.610Z,35.20
2019-03-03T15:23:22.762Z,34.70
2019-03-03T15:25:52.906Z,34.20
2019-03-03T15:28:23.143Z,34.60
2019-03-03T15:30:53.367Z,34.80
2019-03-03T15:33:23.593Z,35.00
2019-03-03T15:35:53.678Z,34.60
2019-03-03T15:38:24.097Z,34.50
2019-03-03T15:40:54.210Z,35.00
2019-03-03T15:43:24.501Z,36.70
2019-03-03T15:45:54.733Z,35.60
2019-03-03T15:48:24.885Z,35.20
2019-03-03T15:50:55.038Z,35.70
2019-03-03T15:53:26.565Z,36.60
2019-03-03T15:55:57.633Z,37.20
2019-03-03T15:58:27.801Z,38.00
2019-03-03T16:00:57.944Z,35.50
2019-03-03T16:03:28.104Z,34.90
2019-03-03T16:05:58.322Z,35.00
2019-03-03T16:08:28.426Z,34.90
2019-03-03T16:10:59.000Z,34.60
2019-03-03T16:13:29.166Z,35.90
2019-03-03T16:15:59.307Z,36.20
2019-03-03T16:18:29.469Z,37.40
2019-03-03T16:20:59.541Z,38.70
2019-03-03T16:23:29.743Z,39.20
2019-03-03T16:25:59.892Z,39.20
2019-03-03T16:28:30.062Z,39.20
2019-03-03T16:31:00.122Z,40.20
2019-03-03T16:33:30.301Z,40.50
2019-03-03T16:36:00.467Z,40.90
2019-03-03T16:38:30.535Z,41.20
2019-03-03T16:41:00.698Z,41.60
2019-03-03T16:43:30.858Z,42.80
2019-03-03T16:46:01.103Z,43.60
2019-03-03T16:48:31.195Z,44.30
2019-03-03T16:51:01.432Z,44.90
2019-03-03T16:53:31.807Z,44.70
2019-03-03T16:56:01.875Z,45.60
2019-03-03T16:58:32.493Z,46.00
2019-03-03T17:01:02.621Z,46.30
2019-03-03T17:03:32.865Z,46.50
2019-03-03T17:06:03.473Z,46.30
2019-03-03T17:08:33.613Z,46.70
2019-03-03T17:11:03.782Z,46.90
2019-03-03T17:13:34.458Z,46.80
2019-03-03T17:16:04.780Z,47.40
2019-03-03T17:18:34.984Z,47.30
2019-03-03T17:21:05.138Z,46.90
2019-03-03T17:23:35.355Z,46.90
2019-03-03T17:26:05.421Z,47.10
2019-03-03T17:28:35.642Z,47.30
2019-03-03T17:31:05.997Z,48.00
2019-03-03T17:33:36.197Z,48.00
2019-03-03T17:36:06.275Z,47.40
2019-03-03T17:38:36.511Z,47.70
2019-03-03T17:41:06.975Z,47.90
2019-03-03T17:43:36.978Z,48.10
2019-03-03T17:46:07.127Z,48.50
2019-03-03T17:48:37.291Z,48.50
2019-03-03T17:51:07.768Z,48.20
2019-03-03T17:53:37.940Z,48.40
2019-03-03T17:56:08.133Z,48.50
2019-03-03T17:58:38.203Z,48.80
2019-03-03T18:01:08.441Z,48.50
2019-03-03T18:03:38.573Z,48.40
2019-03-03T18:06:08.714Z,48.60
2019-03-03T18:08:38.830Z,48.80
2019-03-03T18:11:09.332Z,48.90
2019-03-03T18:13:39.659Z,49.40
2019-03-03T18:16:10.189Z,49.40
2019-03-03T18:18:40.398Z,48.90
2019-03-03T18:21:10.611Z,48.70
2019-03-03T18:23:40.774Z,48.80
2019-03-03T18:26:10.939Z,49.10
2019-03-03T18:28:41.420Z,49.10
2019-03-03T18:31:11.498Z,49.10
2019-03-03T18:33:41.714Z,49.80
2019-03-03T18:36:11.952Z,49.80
2019-03-03T18:38:42.168Z,49.50
2019-03-03T18:41:12.321Z,49.80
2019-03-03T18:43:42.552Z,49.70
2019-03-03T18:46:12.644Z,50.00
2019-03-03T18:48:43.177Z,50.50
2019-03-03T18:51:13.340Z,52.10
2019-03-03T18:53:43.839Z,50.40
2019-03-03T18:56:14.354Z,50.50
2019-03-03T18:58:44.873Z,50.80
2019-03-03T19:01:15.121Z,50.90
2019-03-03T19:03:45.326Z,51.20
2019-03-03T19:06:15.959Z,51.10
2019-03-03T19:08:46.061Z,51.30
2019-03-03T19:11:16.303Z,51.40
2019-03-03T19:13:46.378Z,51.50
2019-03-03T19:16:16.538Z,51.60
2019-03-03T19:18:47.007Z,52.00
2019-03-03T19:21:17.391Z,51.90
2019-03-03T19:23:47.548Z,51.70
2019-03-03T19:26:18.932Z,51.70
2019-03-03T19:28:49.254Z,52.30
2019-03-03T19:31:20.895Z,52.20
2019-03-03T19:33:53.993Z,51.80
2019-03-03T19:36:24.474Z,52.10
2019-03-03T19:38:54.755Z,52.90
2019-03-03T19:41:25.226Z,56.00
2019-03-03T19:43:55.752Z,52.60
2019-03-03T19:46:25.910Z,52.70
2019-03-03T19:48:56.157Z,53.50
2019-03-03T19:51:26.393Z,52.10
2019-03-03T19:53:56.611Z,51.70
2019-03-03T19:56:27.267Z,50.70
2019-03-03T19:58:57.546Z,50.30
2019-03-03T20:01:27.825Z,48.90
2019-03-03T20:03:58.050Z,48.00
2019-03-03T20:06:28.665Z,49.00
2019-03-03T20:08:59.196Z,48.60
2019-03-03T20:11:48.724Z,47.50
2019-03-03T20:14:18.958Z,47.20
2019-03-03T20:16:49.226Z,46.10
2019-03-03T20:19:19.383Z,47.00
2019-03-03T20:21:49.622Z,46.90
2019-03-03T20:24:19.859Z,47.00
2019-03-03T20:26:50.076Z,46.60
2019-03-03T20:29:20.622Z,46.40
2019-03-03T20:31:50.924Z,45.50
2019-03-03T20:34:21.156Z,45.90
2019-03-03T20:36:51.800Z,46.30
2019-03-03T20:39:22.161Z,46.20
2019-03-03T20:41:52.889Z,45.60
2019-03-03T20:44:24.750Z,44.80
2019-03-03T20:46:54.961Z,46.60
2019-03-03T20:49:25.249Z,46.00
2019-03-03T20:51:55.463Z,46.90
2019-03-03T20:54:26.026Z,45.80
2019-03-03T20:56:56.242Z,44.10
2019-03-03T20:59:26.774Z,43.30
2019-03-03T21:01:57.024Z,44.70
2019-03-03T21:04:27.243Z,44.20
2019-03-03T21:06:57.460Z,44.30
2019-03-03T21:09:28.674Z,45.30
2019-03-03T21:11:58.943Z,43.20
2019-03-03T21:14:29.236Z,44.40
2019-03-03T21:16:59.473Z,44.80
2019-03-03T21:19:29.709Z,45.10
2019-03-03T21:22:00.942Z,44.30
2019-03-03T21:24:31.153Z,42.70
2019-03-03T21:27:01.569Z,45.40
2019-03-03T21:29:31.761Z,45.70
2019-03-03T21:32:01.854Z,46.40
2019-03-03T21:34:32.033Z,46.20
2019-03-03T21:37:02.257Z,44.90
2019-03-03T21:39:32.415Z,46.00
2019-03-03T21:42:02.592Z,46.20
2019-03-03T21:44:32.739Z,42.40
2019-03-03T21:47:02.900Z,44.00
2019-03-03T21:49:33.416Z,45.40
2019-03-03T21:52:03.558Z,43.20
2019-03-03T21:54:34.966Z,45.00
2019-03-03T21:57:05.214Z,46.80
2019-03-03T21:59:35.440Z,46.50
2019-03-03T22:02:05.741Z,45.90
2019-03-03T22:04:35.899Z,47.60
2019-03-03T22:07:06.329Z,47.60
2019-03-03T22:09:36.521Z,48.10
2019-03-03T22:12:07.117Z,47.20
2019-03-03T22:14:37.628Z,46.70
2019-03-03T22:17:07.697Z,47.50
2019-03-03T22:19:38.297Z,47.70
2019-03-03T22:22:08.913Z,47.30
2019-03-03T22:24:39.204Z,47.70
2019-03-03T22:27:11.624Z,48.10
2019-03-03T22:29:41.823Z,48.70
2019-03-03T22:32:11.899Z,48.30
2019-03-03T22:34:42.132Z,48.50
2019-03-03T22:37:12.290Z,47.60
2019-03-03T22:39:42.457Z,46.90
2019-03-03T22:42:12.936Z,48.00
2019-03-03T22:44:43.079Z,48.00
2019-03-03T22:47:13.318Z,47.80
2019-03-03T22:49:43.377Z,48.30
2019-03-03T22:52:13.932Z,48.20
2019-03-03T22:54:44.038Z,48.40
2019-03-03T22:57:14.171Z,48.30
2019-03-03T22:59:45.440Z,48.00
2019-03-03T23:02:17.159Z,49.10
2019-03-03T23:04:53.126Z,49.40
2019-03-03T23:07:27.761Z,48.90
2019-03-03T23:10:15.180Z,49.10
2019-03-03T23:12:48.143Z,49.20
2019-03-03T23:15:30.540Z,48.30
2019-03-03T23:18:23.183Z,48.50
2019-03-03T23:21:11.538Z,49.20
2019-03-03T23:24:07.253Z,49.10
2019-03-03T23:26:37.279Z,49.30
2019-03-03T23:29:07.427Z,49.00
2019-03-03T23:31:40.561Z,49.10
2019-03-03T23:34:12.051Z,49.60
2019-03-03T23:36:42.432Z,50.10
2019-03-03T23:39:12.738Z,49.30
2019-03-03T23:41:42.818Z,49.00
2019-03-03T23:44:12.990Z,50.10
2019-03-03T23:46:43.032Z,49.80
2019-03-03T23:49:13.500Z,49.70
2019-03-03T23:51:43.597Z,49.60
2019-03-03T23:54:13.810Z,49.00
2019-03-03T23:56:44.266Z,49.10
2019-03-03T23:59:14.436Z,49.70
